Terminal Aerodrome Forecast
Issued by NWS

Home | Current Version | Previous Version | Text Only | Print | Product List | Glossary Off
Versions: 1 2 3 4 5 6 7 8 9 10 11 12 13

000
FTUS43 KOAX 020532
TAFCDR
TAF
KCDR 020532Z 0206/0306 19009KT P6SM SKC
     FM021200 22007KT P6SM SKC
     FM021900 29011KT P6SM FEW250
     FM030300 20006KT P6SM SCT150=

USA.gov is the U.S. government's official web portal to all federal, state and local government web resources and services.